Time;durP1;ratioP1;P1;durP2;ratioP2;P2;SDS_P1;SDS_P2;PMS_P1;PMS_P2;Temp;Humidity;BMP_temperature;BMP_pressure;BME280_temperature;BME280_humidity;BME280_pressure;Samples;Min_cycle;Max_cycle;Signal;HPM_P1;HPM_P2
2020/12/16 00:01:55;;;;;;;11.75;8.55;;;8.20;99.90;;;;;;5014176;28;20137;-90
2020/12/16 00:04:21;;;;;;;10.98;7.93;;;8.40;99.90;;;;;;4996796;28;20132;-90
2020/12/16 00:06:49;;;;;;;9.00;6.03;;;8.30;99.90;;;;;;5019075;28;20092;-90
2020/12/16 00:09:16;;;;;;;7.10;4.88;;;8.30;99.90;;;;;;4998162;28;20053;-89
2020/12/16 00:11:43;;;;;;;9.45;5.38;;;8.30;99.90;;;;;;5016074;28;20514;-90
2020/12/16 00:14:10;;;;;;;7.75;5.20;;;8.30;99.90;;;;;;5015887;28;20073;-89
2020/12/16 00:16:36;;;;;;;39.20;21.38;;;8.40;99.90;;;;;;5015661;28;20145;-89
2020/12/16 00:19:03;;;;;;;33.80;18.10;;;8.40;99.90;;;;;;5015863;28;20077;-89
2020/12/16 00:21:30;;;;;;;28.85;15.95;;;8.30;99.90;;;;;;4982368;28;20050;-87
2020/12/16 00:23:57;;;;;;;30.33;17.27;;;8.30;99.90;;;;;;5030111;28;20096;-87
2020/12/16 00:26:23;;;;;;;16.83;10.05;;;8.30;99.90;;;;;;5036355;28;20129;-88
2020/12/16 00:28:51;;;;;;;12.07;6.82;;;8.40;99.90;;;;;;5035516;28;20455;-88
2020/12/16 00:31:17;;;;;;;13.95;7.88;;;8.30;99.60;;;;;;5033715;28;20136;-88
2020/12/16 00:33:44;;;;;;;13.75;9.43;;;8.20;99.90;;;;;;5034017;28;20077;-88
2020/12/16 00:36:11;;;;;;;15.05;9.02;;;8.30;99.90;;;;;;5034244;28;20115;-88
2020/12/16 00:38:38;;;;;;;13.35;7.45;;;8.20;99.90;;;;;;5034084;28;20128;-88
2020/12/16 00:41:04;;;;;;;14.00;7.40;;;8.10;99.90;;;;;;5033922;28;20128;-88
2020/12/16 00:43:31;;;;;;;12.48;7.10;;;8.10;99.90;;;;;;5032711;28;20152;-88
2020/12/16 00:45:58;;;;;;;14.85;7.25;;;7.90;99.90;;;;;;5032976;28;20136;-88
2020/12/16 00:48:25;;;;;;;14.00;8.18;;;8.00;99.90;;;;;;5018661;28;20120;-88
2020/12/16 00:50:52;;;;;;;13.20;8.00;;;7.90;99.90;;;;;;5037287;28;20502;-88
2020/12/16 00:53:18;;;;;;;15.80;7.95;;;7.90;99.90;;;;;;5026472;28;20144;-88
2020/12/16 00:55:45;;;;;;;13.77;7.80;;;8.10;99.90;;;;;;5020220;28;20144;-89
2020/12/16 00:58:12;;;;;;;14.43;8.40;;;7.80;99.90;;;;;;5037148;28;20148;-88
2020/12/16 01:00:39;;;;;;;10.57;7.65;;;7.60;99.90;;;;;;5046093;28;20117;-88
2020/12/16 01:03:06;;;;;;;16.05;7.32;;;7.70;99.90;;;;;;5046651;28;20113;-89
2020/12/16 01:05:33;;;;;;;16.25;7.88;;;7.60;99.90;;;;;;5048030;28;20114;-88
2020/12/16 01:07:59;;;;;;;14.77;7.15;;;7.60;99.90;;;;;;5046031;28;20076;-88
2020/12/16 01:10:26;;;;;;;15.55;8.02;;;7.50;99.90;;;;;;5027704;28;20473;-88
2020/12/16 01:12:53;;;;;;;17.27;7.55;;;7.40;99.90;;;;;;5043827;28;20080;-88
2020/12/16 01:15:21;;;;;;;13.90;7.57;;;7.40;99.90;;;;;;5037918;28;20165;-88
2020/12/16 01:17:50;;;;;;;10.57;6.93;;;7.20;99.90;;;;;;5039352;28;20061;-88
2020/12/16 01:20:17;;;;;;;10.23;7.28;;;7.10;99.90;;;;;;5046585;28;20076;-88
2020/12/16 01:22:46;;;;;;;11.20;6.75;;;7.00;99.90;;;;;;5040305;28;20456;-88
2020/12/16 01:25:15;;;;;;;12.38;6.78;;;6.90;99.90;;;;;;5001770;28;20191;-86
2020/12/16 01:27:41;;;;;;;11.00;7.57;;;6.90;99.90;;;;;;5036598;28;20227;-87
2020/12/16 01:30:10;;;;;;;9.73;6.78;;;6.80;99.90;;;;;;5035281;28;20475;-86
2020/12/16 01:32:38;;;;;;;11.57;7.53;;;7.00;99.90;;;;;;5035661;28;20546;-87
2020/12/16 01:35:06;;;;;;;9.70;6.88;;;7.00;99.90;;;;;;5035511;28;20136;-87
2020/12/16 01:37:34;;;;;;;9.27;6.97;;;7.10;99.90;;;;;;5017788;28;20132;-87
2020/12/16 01:40:01;;;;;;;9.23;6.63;;;7.30;99.90;;;;;;5035547;28;20132;-88
2020/12/16 01:42:28;;;;;;;11.23;7.95;;;7.20;99.90;;;;;;5017953;28;20136;-88
2020/12/16 01:44:54;;;;;;;11.57;7.80;;;7.10;99.90;;;;;;5036101;28;20136;-88
2020/12/16 01:47:22;;;;;;;10.02;6.78;;;7.10;99.90;;;;;;5035558;28;20610;-86
2020/12/16 01:49:49;;;;;;;8.85;6.15;;;7.30;99.90;;;;;;5034973;28;20059;-87
2020/12/16 01:52:20;;;;;;;8.38;6.03;;;7.40;99.90;;;;;;5035277;28;20061;-86
2020/12/16 01:54:48;;;;;;;8.70;6.18;;;7.30;99.90;;;;;;5034926;28;20140;-87
2020/12/16 01:57:19;;;;;;;9.10;6.70;;;7.40;99.90;;;;;;5034860;28;20131;-86
2020/12/16 01:59:47;;;;;;;7.97;6.13;;;7.40;99.90;;;;;;5034069;28;20059;-86
2020/12/16 02:02:17;;;;;;;7.93;5.78;;;7.40;99.90;;;;;;5034890;28;20060;-87
2020/12/16 02:04:47;;;;;;;9.68;6.03;;;7.40;99.90;;;;;;5034814;28;20050;-87
2020/12/16 02:07:15;;;;;;;8.00;5.63;;;7.40;99.90;;;;;;5034885;28;20410;-88
2020/12/16 02:09:44;;;;;;;8.02;5.32;;;7.40;99.90;;;;;;5034536;28;20049;-87
2020/12/16 02:12:15;;;;;;;8.85;5.57;;;7.50;99.90;;;;;;5035118;28;20130;-88
2020/12/16 02:14:43;;;;;;;8.18;5.82;;;7.50;99.90;;;;;;5017063;28;20046;-86
2020/12/16 02:17:11;;;;;;;8.38;5.53;;;7.50;99.90;;;;;;5033306;28;20046;-87
2020/12/16 02:19:43;;;;;;;7.40;5.25;;;7.50;99.90;;;;;;5034403;28;20136;-85
2020/12/16 02:22:11;;;;;;;7.60;4.93;;;7.50;99.90;;;;;;5034431;28;20132;-87
2020/12/16 02:24:48;;;;;;;9.93;5.30;;;7.40;99.80;;;;;;5034332;28;20057;-88
2020/12/16 02:27:15;;;;;;;7.32;5.22;;;7.40;99.50;;;;;;5034923;28;20407;-88
2020/12/16 02:29:42;;;;;;;8.48;5.40;;;7.30;99.50;;;;;;5035114;28;20140;-88
2020/12/16 02:32:10;;;;;;;7.53;5.30;;;7.20;99.60;;;;;;5020077;28;20050;-88
2020/12/16 02:34:37;;;;;;;7.22;4.97;;;7.00;99.60;;;;;;5020606;28;20113;-88
2020/12/16 02:37:04;;;;;;;7.63;5.18;;;6.90;99.70;;;;;;5038790;28;20056;-88
2020/12/16 02:39:30;;;;;;;6.80;4.93;;;6.90;99.90;;;;;;5021763;28;20136;-88
2020/12/16 02:42:03;;;;;;;7.68;5.47;;;6.90;99.50;;;;;;5040109;28;20069;-88
2020/12/16 02:44:29;;;;;;;8.73;5.82;;;6.70;99.90;;;;;;5040577;28;20084;-88
2020/12/16 02:47:00;;;;;;;7.18;4.65;;;6.70;99.90;;;;;;5038094;28;20140;-88
2020/12/16 02:49:27;;;;;;;11.10;6.70;;;6.70;99.90;;;;;;5020307;28;20574;-88
2020/12/16 02:51:54;;;;;;;10.73;6.85;;;6.70;99.90;;;;;;5019438;28;20056;-88
2020/12/16 02:54:21;;;;;;;10.95;7.25;;;6.80;99.90;;;;;;5035176;28;20053;-86
2020/12/16 02:56:49;;;;;;;12.35;7.90;;;6.90;99.90;;;;;;5034201;28;20143;-87
2020/12/16 02:59:17;;;;;;;9.38;6.10;;;7.00;99.90;;;;;;5016450;28;20077;-87
2020/12/16 03:01:47;;;;;;;11.10;6.93;;;6.90;99.90;;;;;;5033920;28;20474;-87
2020/12/16 03:04:14;;;;;;;9.25;5.97;;;7.10;99.90;;;;;;5035811;28;20056;-87
2020/12/16 03:06:41;;;;;;;9.50;6.10;;;7.10;99.90;;;;;;5027627;28;20065;-87
2020/12/16 03:09:08;;;;;;;10.75;5.82;;;7.20;99.90;;;;;;5011622;28;20042;-87
2020/12/16 03:11:35;;;;;;;8.48;5.75;;;7.20;99.90;;;;;;5044256;28;20076;-87
2020/12/16 03:14:01;;;;;;;7.82;5.18;;;7.20;99.80;;;;;;5016152;28;20075;-87
2020/12/16 03:16:29;;;;;;;8.15;5.25;;;7.20;99.70;;;;;;5033541;28;20132;-87
2020/12/16 03:18:55;;;;;;;8.23;5.20;;;7.10;99.60;;;;;;5016059;28;20144;-86
2020/12/16 03:21:24;;;;;;;7.82;5.10;;;7.10;99.80;;;;;;5033304;28;20144;-87
2020/12/16 03:23:50;;;;;;;7.50;5.10;;;7.00;99.90;;;;;;5032846;28;20068;-86
2020/12/16 03:26:17;;;;;;;8.20;4.70;;;7.20;99.90;;;;;;5033173;28;20115;-87
2020/12/16 03:28:44;;;;;;;7.65;5.20;;;7.10;99.40;;;;;;5033168;28;20132;-86
2020/12/16 03:31:11;;;;;;;8.00;5.45;;;6.90;99.70;;;;;;5015942;28;20057;-87
2020/12/16 03:33:41;;;;;;;11.00;6.45;;;7.00;99.70;;;;;;5032813;28;20400;-86
2020/12/16 03:36:07;;;;;;;10.50;6.38;;;6.90;99.80;;;;;;5033183;28;20489;-87
2020/12/16 03:38:34;;;;;;;12.77;6.97;;;6.80;99.80;;;;;;5033313;28;20578;-87
2020/12/16 03:41:01;;;;;;;14.13;8.15;;;6.90;99.90;;;;;;5033337;28;20136;-87
2020/12/16 03:43:27;;;;;;;14.98;8.13;;;6.70;99.90;;;;;;5033475;28;20136;-87
2020/12/16 03:45:54;;;;;;;13.63;7.65;;;6.80;99.90;;;;;;5033240;28;20076;-87
2020/12/16 03:48:20;;;;;;;14.35;7.28;;;6.70;99.90;;;;;;5032490;28;20132;-87
2020/12/16 03:50:48;;;;;;;13.50;8.13;;;6.60;99.90;;;;;;5033102;28;20566;-87
2020/12/16 03:53:14;;;;;;;14.93;8.30;;;6.60;99.90;;;;;;5033128;28;20663;-88
2020/12/16 03:55:41;;;;;;;12.23;7.57;;;6.60;99.90;;;;;;5032989;28;20068;-87
2020/12/16 03:58:08;;;;;;;12.38;7.57;;;6.50;99.90;;;;;;5033077;28;20084;-87
2020/12/16 04:00:34;;;;;;;13.73;8.75;;;6.60;99.90;;;;;;5015706;28;20049;-87
2020/12/16 04:03:01;;;;;;;12.25;7.25;;;6.70;99.90;;;;;;5033265;28;20132;-88
2020/12/16 04:05:28;;;;;;;11.73;7.50;;;6.70;99.90;;;;;;5015238;28;20119;-87
2020/12/16 04:07:55;;;;;;;12.73;7.07;;;6.70;99.90;;;;;;5032985;28;20136;-87
2020/12/16 04:10:22;;;;;;;12.15;7.03;;;6.80;99.90;;;;;;5033048;28;20148;-87
2020/12/16 04:12:48;;;;;;;10.32;6.80;;;6.90;99.90;;;;;;5032897;28;20153;-87
2020/12/16 04:15:15;;;;;;;9.63;6.05;;;6.80;99.90;;;;;;5034577;28;20388;-86
2020/12/16 04:17:41;;;;;;;13.55;7.07;;;7.00;99.90;;;;;;5036474;28;20077;-87
2020/12/16 04:20:09;;;;;;;9.85;6.18;;;6.90;99.90;;;;;;5033293;28;20071;-87
2020/12/16 04:22:35;;;;;;;10.60;6.68;;;6.90;99.90;;;;;;5034712;28;20068;-86
2020/12/16 04:25:04;;;;;;;11.20;6.50;;;6.90;99.90;;;;;;5037174;28;20126;-86
2020/12/16 04:27:31;;;;;;;10.80;7.18;;;7.00;99.90;;;;;;5036710;28;20140;-86
2020/12/16 04:29:58;;;;;;;11.13;6.70;;;6.90;99.90;;;;;;5037104;28;20128;-85
2020/12/16 04:32:24;;;;;;;10.45;6.70;;;6.90;99.90;;;;;;5036374;28;20088;-85
2020/12/16 04:34:51;;;;;;;11.18;7.15;;;6.90;99.70;;;;;;5036390;28;20488;-87
2020/12/16 04:37:18;;;;;;;9.75;5.97;;;6.90;99.80;;;;;;5036541;28;20076;-86
2020/12/16 04:39:44;;;;;;;10.02;6.38;;;6.90;99.80;;;;;;5036710;28;20491;-85
2020/12/16 04:42:12;;;;;;;10.88;7.22;;;6.90;99.80;;;;;;5037925;28;20238;-87
2020/12/16 04:44:39;;;;;;;9.95;6.60;;;6.90;99.60;;;;;;5045029;28;20132;-85
2020/12/16 04:47:05;;;;;;;10.52;6.70;;;6.90;99.70;;;;;;5039022;28;20436;-85
2020/12/16 04:49:32;;;;;;;12.10;6.70;;;6.90;99.50;;;;;;5038149;28;20069;-85
2020/12/16 04:52:00;;;;;;;10.48;6.20;;;6.90;99.40;;;;;;5037822;28;20141;-84
2020/12/16 04:54:28;;;;;;;10.93;6.72;;;6.80;99.30;;;;;;5037306;28;20570;-84
2020/12/16 04:56:58;;;;;;;8.93;5.72;;;6.80;99.40;;;;;;5038152;28;20407;-87
2020/12/16 04:59:26;;;;;;;10.63;6.32;;;6.70;99.70;;;;;;5037629;28;20129;-84
2020/12/16 05:01:53;;;;;;;10.00;5.85;;;6.80;99.80;;;;;;5035818;28;20129;-84
2020/12/16 05:04:19;;;;;;;11.32;6.35;;;6.80;99.60;;;;;;5035959;28;20108;-84
2020/12/16 05:06:46;;;;;;;10.73;6.35;;;6.80;99.50;;;;;;5035515;28;20045;-86
2020/12/16 05:09:14;;;;;;;11.18;6.90;;;6.70;99.60;;;;;;5034409;28;20057;-85
2020/12/16 05:11:44;;;;;;;10.05;6.40;;;6.80;99.60;;;;;;5036095;28;20132;-90
2020/12/16 05:14:14;;;;;;;9.77;6.30;;;6.80;99.40;;;;;;5035899;28;20053;-89
2020/12/16 05:17:02;;;;;;;10.45;6.53;;;6.80;99.50;;;;;;5035721;28;20128;-89
2020/12/16 05:19:37;;;;;;;9.57;6.43;;;6.70;99.30;;;;;;5035827;28;20146;-86
2020/12/16 05:22:22;;;;;;;10.75;6.47;;;6.70;99.50;;;;;;5035763;28;20069;-86
2020/12/16 05:24:51;;;;;;;;;;;6.60;99.60;;;;;;5018087;28;20391;-85
2020/12/16 05:27:24;;;;;;;10.73;6.60;;;6.60;99.50;;;;;;5017790;28;19921;-84
2020/12/16 05:29:54;;;;;;;12.15;6.72;;;6.80;99.60;;;;;;5031886;28;20439;-84
2020/12/16 05:32:27;;;;;;;11.60;6.50;;;6.70;99.40;;;;;;5034968;28;20132;-84
2020/12/16 05:34:56;;;;;;;14.63;8.38;;;6.70;99.40;;;;;;5017494;28;20080;-83
2020/12/16 05:37:33;;;;;;;15.30;8.55;;;6.70;99.90;;;;;;5034647;28;20057;-83
2020/12/16 05:40:07;;;;;;;14.55;8.50;;;6.60;99.90;;;;;;5034606;28;20046;-83
2020/12/16 05:42:34;;;;;;;14.32;8.57;;;6.60;99.90;;;;;;5001493;28;20454;-83
2020/12/16 05:45:13;;;;;;;14.73;8.82;;;6.70;99.90;;;;;;5034799;28;20049;-83
2020/12/16 05:47:42;;;;;;;17.20;9.02;;;6.60;99.90;;;;;;5034466;28;20132;-83
2020/12/16 05:50:19;;;;;;;18.08;9.07;;;6.70;99.90;;;;;;5034431;28;20464;-83
2020/12/16 05:52:46;;;;;;;19.33;8.75;;;6.60;99.90;;;;;;5034200;28;20128;-83
2020/12/16 05:55:27;;;;;;;36.42;8.57;;;6.60;99.90;;;;;;5034623;28;20049;-83
2020/12/16 05:58:07;;;;;;;24.33;8.43;;;6.50;99.90;;;;;;5034745;28;20061;-86
2020/12/16 06:00:49;;;;;;;20.10;8.40;;;6.20;99.90;;;;;;5034635;28;20054;-87
2020/12/16 06:03:21;;;;;;;21.50;8.23;;;6.00;99.90;;;;;;5030709;28;20049;-86
2020/12/16 06:05:51;;;;;;;20.98;9.35;;;5.90;99.90;;;;;;5034056;28;20085;-86
2020/12/16 06:08:19;;;;;;;29.42;9.43;;;5.80;99.90;;;;;;5034477;28;20136;-86
2020/12/16 06:10:48;;;;;;;13.25;8.18;;;5.80;99.90;;;;;;5034395;28;20326;-86
2020/12/16 06:13:17;;;;;;;15.45;8.85;;;5.80;99.90;;;;;;5017133;28;20144;-83
2020/12/16 06:15:59;;;;;;;13.80;8.50;;;5.80;99.90;;;;;;5000268;28;20056;-84
2020/12/16 06:18:30;;;;;;;15.32;8.48;;;5.90;99.90;;;;;;5034205;28;20060;-83
2020/12/16 06:20:58;;;;;;;13.60;7.93;;;6.00;99.90;;;;;;5034199;28;20163;-83
2020/12/16 06:23:32;;;;;;;12.77;8.05;;;6.10;99.90;;;;;;5034129;28;20089;-83
2020/12/16 06:26:01;;;;;;;12.85;7.70;;;6.30;99.90;;;;;;5017018;28;20140;-85
2020/12/16 06:28:28;;;;;;;13.77;7.95;;;6.30;99.90;;;;;;5033905;28;20590;-84
2020/12/16 06:31:04;;;;;;;12.00;7.95;;;6.30;99.90;;;;;;5034085;28;20480;-85
2020/12/16 06:33:43;;;;;;;11.95;7.40;;;6.50;99.90;;;;;;5033956;28;20189;-84
2020/12/16 06:36:11;;;;;;;11.82;7.38;;;6.60;99.90;;;;;;5033949;28;20080;-83
2020/12/16 06:38:44;;;;;;;11.60;7.40;;;6.60;99.90;;;;;;5033782;28;20479;-83
2020/12/16 06:41:23;;;;;;;12.10;7.40;;;6.80;99.90;;;;;;5033868;28;20080;-84
2020/12/16 06:43:51;;;;;;;11.95;7.55;;;6.70;99.90;;;;;;5033830;28;20454;-83
2020/12/16 06:46:39;;;;;;;12.25;8.20;;;6.60;99.90;;;;;;5033437;28;20136;-83
2020/12/16 06:49:35;;;;;;;12.57;8.02;;;6.60;99.90;;;;;;5033696;28;20060;-86
2020/12/16 06:52:04;;;;;;;13.02;8.45;;;6.50;99.90;;;;;;5033238;28;20542;-85
2020/12/16 06:54:52;;;;;;;12.48;7.45;;;6.40;99.90;;;;;;5033103;28;20478;-85
2020/12/16 06:57:22;;;;;;;12.88;7.93;;;6.30;99.90;;;;;;5033327;28;20049;-85
2020/12/16 06:59:55;;;;;;;14.00;8.25;;;6.30;99.90;;;;;;5033607;28;20081;-85
2020/12/16 07:02:31;;;;;;;11.40;7.15;;;6.30;99.90;;;;;;5033627;28;20060;-85
2020/12/16 07:05:01;;;;;;;13.23;8.15;;;6.40;99.90;;;;;;5033525;28;20076;-85
2020/12/16 07:07:49;;;;;;;12.73;7.88;;;6.50;99.90;;;;;;5033303;28;20133;-85
2020/12/16 07:10:48;;;;;;;12.38;7.85;;;6.50;99.90;;;;;;5033480;28;20087;-83
2020/12/16 07:13:30;;;;;;;13.35;8.65;;;6.60;99.90;;;;;;5033598;28;20052;-85
2020/12/16 07:16:03;;;;;;;13.20;7.93;;;6.70;99.90;;;;;;5033276;28;20049;-82
2020/12/16 07:18:42;;;;;;;13.10;7.60;;;6.60;99.90;;;;;;5033397;28;20128;-82
2020/12/16 07:21:31;;;;;;;10.85;7.20;;;6.70;99.90;;;;;;5033264;28;20073;-84
2020/12/16 07:24:04;;;;;;;12.48;7.35;;;6.80;99.90;;;;;;5033054;28;20072;-84
2020/12/16 07:26:34;;;;;;;11.63;7.38;;;6.80;99.90;;;;;;5032962;28;20089;-85
2020/12/16 07:29:28;;;;;;;12.65;7.93;;;6.80;99.90;;;;;;5033254;28;20132;-85
2020/12/16 07:32:01;;;;;;;12.52;7.35;;;6.90;99.90;;;;;;5033073;28;20495;-85
2020/12/16 07:34:29;;;;;;;11.43;7.10;;;6.90;99.90;;;;;;5033056;28;20209;-85
2020/12/16 07:36:59;;;;;;;11.30;7.40;;;6.90;99.90;;;;;;5032889;28;20080;-85
2020/12/16 07:39:26;;;;;;;11.10;6.90;;;6.80;99.90;;;;;;5033236;28;20081;-83
2020/12/16 07:41:55;;;;;;;14.63;8.48;;;6.90;99.90;;;;;;5033056;28;20124;-85
2020/12/16 07:44:22;;;;;;;16.70;8.30;;;6.80;99.90;;;;;;5033809;28;20415;-83
2020/12/16 07:46:49;;;;;;;12.00;7.95;;;6.80;99.90;;;;;;5043829;28;20104;-83
2020/12/16 07:49:16;;;;;;;11.27;6.97;;;6.80;99.90;;;;;;5043991;28;20518;-83
2020/12/16 07:51:43;;;;;;;12.38;7.70;;;6.90;99.90;;;;;;5042695;28;20045;-82
2020/12/16 07:54:11;;;;;;;12.75;7.90;;;6.90;99.90;;;;;;5032959;28;20046;-82
2020/12/16 07:56:38;;;;;;;13.45;7.95;;;6.90;99.90;;;;;;5033325;28;20077;-83
2020/12/16 07:59:12;;;;;;;13.05;7.80;;;6.90;99.90;;;;;;5036891;28;20554;-85
2020/12/16 08:01:39;;;;;;;11.55;7.88;;;6.90;99.90;;;;;;5036773;28;20594;-85
2020/12/16 08:04:06;;;;;;;13.52;7.85;;;6.90;99.90;;;;;;5036800;28;20133;-82
2020/12/16 08:06:33;;;;;;;14.18;7.25;;;6.80;99.90;;;;;;5036764;28;20075;-85
2020/12/16 08:09:00;;;;;;;12.60;7.68;;;7.00;99.90;;;;;;5036842;28;20483;-83
2020/12/16 08:11:28;;;;;;;16.33;8.75;;;7.00;99.90;;;;;;5036819;28;20120;-83
2020/12/16 08:14:06;;;;;;;13.05;7.88;;;7.10;99.90;;;;;;5036967;28;20133;-85
2020/12/16 08:16:34;;;;;;;12.48;7.85;;;6.80;99.90;;;;;;5036486;28;20054;-85
2020/12/16 08:19:01;;;;;;;14.90;8.80;;;6.70;99.90;;;;;;5036668;28;20507;-86
2020/12/16 08:21:29;;;;;;;14.82;8.50;;;6.60;99.90;;;;;;5036588;28;20137;-85
2020/12/16 08:23:56;;;;;;;14.73;8.75;;;6.50;99.90;;;;;;5036246;28;20053;-85
2020/12/16 08:26:25;;;;;;;14.18;7.93;;;6.60;99.90;;;;;;5036936;28;20051;-85
2020/12/16 08:28:53;;;;;;;12.05;7.57;;;6.50;99.90;;;;;;5036683;28;20053;-83
2020/12/16 08:31:22;;;;;;;13.00;7.47;;;6.60;99.90;;;;;;5036276;28;20136;-83
2020/12/16 08:33:50;;;;;;;14.82;8.13;;;6.70;99.90;;;;;;5036340;28;20136;-83
2020/12/16 08:36:21;;;;;;;12.80;8.07;;;6.90;99.90;;;;;;5036162;28;20563;-82
2020/12/16 08:38:51;;;;;;;13.57;8.23;;;6.80;99.90;;;;;;5036142;28;20095;-83
2020/12/16 08:41:26;;;;;;;14.23;8.27;;;6.90;99.90;;;;;;5035923;28;20132;-82
2020/12/16 08:43:53;;;;;;;;;;;6.90;99.90;;;;;;5036457;28;20140;-83
2020/12/16 08:46:23;;;;;;;15.02;8.15;;;6.90;99.90;;;;;;5035953;28;20358;-83
2020/12/16 08:48:51;;;;;;;14.57;8.25;;;7.00;99.90;;;;;;5035841;28;20049;-83
2020/12/16 08:51:21;;;;;;;13.27;8.10;;;7.10;99.90;;;;;;5035934;28;20513;-83
2020/12/16 08:53:55;;;;;;;15.38;8.60;;;7.10;99.90;;;;;;5035812;28;20132;-83
2020/12/16 08:56:28;;;;;;;13.32;8.32;;;7.20;99.90;;;;;;5035853;28;20076;-85
2020/12/16 08:59:06;;;;;;;13.75;7.70;;;7.30;99.90;;;;;;5035771;28;20128;-83
2020/12/16 09:01:35;;;;;;;13.18;7.90;;;7.20;99.90;;;;;;5036072;28;20045;-84
2020/12/16 09:04:01;;;;;;;11.55;7.50;;;7.30;99.90;;;;;;5035718;28;20148;-83
2020/12/16 09:06:28;;;;;;;13.27;7.68;;;7.40;99.90;;;;;;5035266;28;20175;-84
2020/12/16 09:08:55;;;;;;;13.10;7.43;;;7.40;99.80;;;;;;5035112;28;20132;-84
2020/12/16 09:11:23;;;;;;;13.40;7.97;;;7.30;99.80;;;;;;5035551;28;20574;-84
2020/12/16 09:13:51;;;;;;;15.93;8.88;;;7.20;99.90;;;;;;5035587;28;20148;-84
2020/12/16 09:16:24;;;;;;;12.98;7.68;;;7.10;99.90;;;;;;5035169;28;20578;-84
2020/12/16 09:18:52;;;;;;;14.77;7.90;;;7.00;99.90;;;;;;5035318;28;20136;-84
2020/12/16 09:21:33;;;;;;;12.77;7.85;;;6.90;99.90;;;;;;5035510;28;20132;-84
2020/12/16 09:24:01;;;;;;;13.15;7.35;;;7.00;99.90;;;;;;5035203;28;20068;-84
2020/12/16 09:26:39;;;;;;;10.75;6.97;;;7.10;99.90;;;;;;5035364;28;20144;-84
2020/12/16 09:29:27;;;;;;;13.02;7.47;;;6.90;99.90;;;;;;5035202;28;20507;-84
2020/12/16 09:32:09;;;;;;;12.98;7.93;;;7.00;99.90;;;;;;5035388;28;20124;-85
2020/12/16 09:34:39;;;;;;;12.48;7.75;;;7.00;99.90;;;;;;5035287;28;20136;-84
2020/12/16 09:37:13;;;;;;;12.73;7.60;;;7.00;99.90;;;;;;5035852;28;20049;-84
2020/12/16 09:39:40;;;;;;;17.80;8.57;;;7.00;99.90;;;;;;5046029;28;20042;-84
2020/12/16 09:42:13;;;;;;;12.45;7.32;;;7.00;99.90;;;;;;5043699;28;20134;-83
2020/12/16 09:44:40;;;;;;;12.45;7.85;;;7.20;99.90;;;;;;5040579;28;20073;-84
2020/12/16 09:47:17;;;;;;;13.23;8.10;;;7.30;99.90;;;;;;5040649;28;20501;-84
2020/12/16 09:49:46;;;;;;;11.52;7.50;;;7.30;99.90;;;;;;5036671;28;20125;-84
2020/12/16 09:52:30;;;;;;;12.55;7.78;;;7.40;99.90;;;;;;5034297;28;20126;-84
2020/12/16 09:54:58;;;;;;;12.40;7.35;;;7.50;99.90;;;;;;5034846;28;20136;-84
2020/12/16 09:57:25;;;;;;;11.70;7.32;;;7.60;99.90;;;;;;5035566;28;20480;-84
2020/12/16 09:59:51;;;;;;;11.15;6.90;;;7.70;99.90;;;;;;5042976;28;20141;-84
2020/12/16 10:02:19;;;;;;;11.90;7.45;;;7.80;99.90;;;;;;5045201;28;20065;-84
2020/12/16 10:04:46;;;;;;;12.55;8.00;;;7.90;99.90;;;;;;5044484;28;20080;-84
2020/12/16 10:07:13;;;;;;;11.82;7.53;;;8.10;99.90;;;;;;5044634;28;20069;-85
2020/12/16 10:09:52;;;;;;;12.68;8.18;;;8.00;99.90;;;;;;5045779;28;20049;-84
2020/12/16 10:12:20;;;;;;;13.23;8.13;;;8.00;99.90;;;;;;5045949;28;20414;-84
2020/12/16 10:14:46;;;;;;;14.07;8.75;;;8.30;99.90;;;;;;5045141;28;20045;-84
2020/12/16 10:17:13;;;;;;;13.45;8.27;;;8.10;99.90;;;;;;5043594;28;20428;-84
2020/12/16 10:19:41;;;;;;;12.55;8.50;;;8.20;99.90;;;;;;5043283;28;20098;-84
2020/12/16 10:22:07;;;;;;;12.95;8.68;;;8.20;99.80;;;;;;5044920;28;20065;-84
2020/12/16 10:24:34;;;;;;;13.88;8.93;;;8.10;99.70;;;;;;5043059;28;20073;-84
2020/12/16 10:27:02;;;;;;;13.93;8.27;;;8.30;99.70;;;;;;5036962;28;20648;-84
2020/12/16 10:29:28;;;;;;;13.55;8.50;;;8.30;99.70;;;;;;5034148;28;20144;-83
2020/12/16 10:31:55;;;;;;;14.52;9.15;;;8.30;99.70;;;;;;5034033;28;20132;-84
2020/12/16 10:34:22;;;;;;;12.75;8.73;;;8.20;99.60;;;;;;5033837;28;20132;-84
2020/12/16 10:36:53;;;;;;;13.18;8.80;;;8.40;99.70;;;;;;5034230;28;20053;-84
2020/12/16 10:39:21;;;;;;;14.80;9.18;;;8.50;99.80;;;;;;5033877;28;20425;-84
2020/12/16 10:41:52;;;;;;;14.38;9.10;;;8.50;99.90;;;;;;5033675;28;20049;-83
2020/12/16 10:44:20;;;;;;;15.80;10.07;;;8.50;99.90;;;;;;5033605;28;20046;-84
2020/12/16 10:46:48;;;;;;;15.52;9.32;;;8.50;99.80;;;;;;5033740;28;20132;-83
2020/12/16 10:49:15;;;;;;;13.40;9.10;;;8.50;99.80;;;;;;5033916;28;20462;-83
2020/12/16 10:51:42;;;;;;;15.07;9.52;;;8.60;99.70;;;;;;5033425;28;20085;-83
2020/12/16 10:54:10;;;;;;;13.90;9.52;;;8.60;99.70;;;;;;5033258;28;20128;-83
2020/12/16 10:56:37;;;;;;;15.02;9.95;;;8.80;99.70;;;;;;5033516;28;20053;-83
2020/12/16 10:59:04;;;;;;;14.43;10.25;;;8.70;99.40;;;;;;5033140;28;20128;-83
2020/12/16 11:01:36;;;;;;;15.57;10.38;;;8.80;99.40;;;;;;5033464;28;20143;-83
2020/12/16 11:04:07;;;;;;;14.18;10.20;;;8.90;99.60;;;;;;5033405;28;20049;-84
2020/12/16 11:06:34;;;;;;;14.38;9.70;;;8.90;99.30;;;;;;5033220;28;20057;-84
2020/12/16 11:09:01;;;;;;;15.00;10.50;;;8.80;99.20;;;;;;5033160;28;20132;-83
2020/12/16 11:11:28;;;;;;;14.40;9.63;;;9.00;99.60;;;;;;5033314;28;20132;-83
2020/12/16 11:13:55;;;;;;;15.70;10.32;;;9.10;99.50;;;;;;5033101;28;20132;-84
2020/12/16 11:16:29;;;;;;;17.35;11.73;;;9.10;99.10;;;;;;5042681;28;20084;-83
2020/12/16 11:18:56;;;;;;;16.92;11.35;;;9.10;99.00;;;;;;5040029;28;20128;-83
2020/12/16 11:21:22;;;;;;;15.48;10.68;;;9.10;99.20;;;;;;5032062;28;20126;-84
2020/12/16 11:23:49;;;;;;;14.88;10.20;;;9.10;99.10;;;;;;5032708;28;20153;-84
2020/12/16 11:26:16;;;;;;;14.98;9.85;;;9.20;99.20;;;;;;5028826;28;20125;-84
2020/12/16 11:28:42;;;;;;;15.40;10.20;;;9.20;99.20;;;;;;5013363;28;20225;-83
2020/12/16 11:31:09;;;;;;;16.27;10.68;;;9.30;99.10;;;;;;5012980;28;20479;-84
2020/12/16 11:33:37;;;;;;;14.95;10.38;;;9.30;99.10;;;;;;5030696;28;20049;-84
2020/12/16 11:36:09;;;;;;;15.63;10.23;;;9.50;99.10;;;;;;5032485;28;20049;-84
2020/12/16 11:38:37;;;;;;;15.00;10.13;;;9.50;99.10;;;;;;5031833;28;20499;-83
2020/12/16 11:41:04;;;;;;;14.85;10.40;;;9.40;99.00;;;;;;5032662;28;20136;-83
2020/12/16 11:43:32;;;;;;;14.52;10.10;;;9.70;98.70;;;;;;5032721;28;20128;-83
2020/12/16 11:45:59;;;;;;;14.45;9.85;;;9.70;98.60;;;;;;5032806;28;20468;-83
2020/12/16 11:48:26;;;;;;;31.05;16.77;;;9.80;98.70;;;;;;5032688;28;20136;-83
2020/12/16 11:50:53;;;;;;;28.42;16.27;;;9.80;98.70;;;;;;5031736;28;20081;-83
2020/12/16 11:53:20;;;;;;;26.83;15.00;;;10.10;98.80;;;;;;5032625;28;20128;-83
2020/12/16 11:55:47;;;;;;;16.52;10.75;;;10.20;98.30;;;;;;5032580;28;20175;-83
2020/12/16 11:58:14;;;;;;;18.55;10.55;;;10.20;98.30;;;;;;5032540;28;20057;-83
2020/12/16 12:00:40;;;;;;;14.98;9.90;;;10.50;98.20;;;;;;5032574;28;20152;-83
2020/12/16 12:03:07;;;;;;;17.33;10.32;;;10.60;98.10;;;;;;5032404;28;20053;-83
2020/12/16 12:05:34;;;;;;;17.23;11.48;;;10.60;98.10;;;;;;5032177;28;20136;-83
2020/12/16 12:08:01;;;;;;;16.65;9.80;;;10.80;97.90;;;;;;5032740;28;20530;-83
2020/12/16 12:10:28;;;;;;;17.77;10.63;;;11.00;97.30;;;;;;5032407;28;20137;-83
2020/12/16 12:12:54;;;;;;;15.73;10.70;;;11.00;96.60;;;;;;5032580;28;20111;-83
2020/12/16 12:15:21;;;;;;;17.77;10.45;;;11.20;97.00;;;;;;5032128;28;20136;-82
2020/12/16 12:17:47;;;;;;;14.70;10.00;;;11.30;96.50;;;;;;5032127;28;20547;-83
2020/12/16 12:20:14;;;;;;;17.10;9.95;;;11.50;96.50;;;;;;5031883;28;20128;-83
2020/12/16 12:22:40;;;;;;;16.33;10.48;;;11.60;96.10;;;;;;5031973;28;20141;-84
2020/12/16 12:25:08;;;;;;;16.70;10.55;;;11.80;95.90;;;;;;5032265;28;20156;-84
2020/12/16 12:27:35;;;;;;;15.85;10.35;;;11.90;96.00;;;;;;5032290;28;20590;-83
2020/12/16 12:30:01;;;;;;;14.82;9.65;;;12.10;95.60;;;;;;5032062;28;20057;-83
2020/12/16 12:32:28;;;;;;;14.25;9.73;;;12.20;95.40;;;;;;5032170;28;20081;-84
2020/12/16 12:34:55;;;;;;;14.45;9.30;;;12.40;94.80;;;;;;5031947;28;20680;-84
2020/12/16 12:37:21;;;;;;;14.18;9.48;;;12.50;94.30;;;;;;5032481;28;20088;-83
2020/12/16 12:39:48;;;;;;;15.48;9.75;;;12.70;94.50;;;;;;5032400;28;20459;-84
2020/12/16 12:42:16;;;;;;;23.95;9.07;;;12.90;93.70;;;;;;5031963;28;20189;-84
2020/12/16 12:44:42;;;;;;;18.95;9.43;;;13.10;93.60;;;;;;5035798;28;20162;-83
2020/12/16 12:47:09;;;;;;;15.13;9.60;;;13.30;93.20;;;;;;5043079;28;20077;-84
2020/12/16 12:49:35;;;;;;;16.17;9.52;;;13.50;92.70;;;;;;5045138;28;20049;-84
2020/12/16 12:52:02;;;;;;;15.05;9.80;;;13.70;92.70;;;;;;5045928;28;20083;-83
2020/12/16 12:54:29;;;;;;;16.88;8.93;;;13.90;92.10;;;;;;5039911;28;20128;-83
2020/12/16 12:56:55;;;;;;;15.90;9.30;;;14.10;91.40;;;;;;5036215;28;20049;-84
2020/12/16 12:59:23;;;;;;;12.40;8.77;;;14.40;91.10;;;;;;5035870;28;20128;-83